This is the latest recevied weather packets stored in our database for station/object F6BIJ-13. If no packets are shown the sender has not sent any weather packets the latest 1 day(s).
| Time | Temp. | Humidity | Pressure | Rain* | Wind** | Luminosity | Snow |
|---|---|---|---|---|---|---|---|
| 1778068477 | 14.44° C | 86% | 1012.6 hPa | 0 mm | - | - | - |
| 1778067757 | 13.33° C | 94% | 1012.6 hPa | 0 mm | - | - | - |
| 1778067397 | 12.22° C | 94% | 1012.6 hPa | 0 mm | - | - | - |
| 1778067037 | 11.67° C | 94% | 1012.6 hPa | 1.02 mm | - | - | - |
| 1778066317 | 10.56° C | 93% | 1012.8 hPa | 1.78 mm | - | - | - |
| 1778065597 | 10.56° C | 90% | 1012.7 hPa | 2.03 mm | - | - | - |
| 1778065237 | 11.11° C | 88% | 1012.6 hPa | 1.02 mm | - | - | - |
| 1778061997 | 11.67° C | 93% | 1012.2 hPa | 0 mm | - | - | - |
| 1778060197 | 11.11° C | 94% | 1011.8 hPa | 0 mm | - | - | - |
| 1778059477 | 11.67° C | 95% | 1011.4 hPa | 1.52 mm | - | - | - |
| 1778059117 | 11.67° C | 94% | 1011.1 hPa | 2.29 mm | - | - | - |
| 1778058397 | 11.67° C | 95% | 1010.9 hPa | 1.78 mm | - | - | - |
| 1778057677 | 11.11° C | 96% | 1010.8 hPa | 0 mm | - | - | - |
| 1778057317 | 11.67° C | 96% | 1010.7 hPa | 0 mm | - | - | - |
| 1778054797 | 11.67° C | 97% | 1010.4 hPa | 1.02 mm | - | - | - |
| 1778054437 | 11.11° C | 97% | 1010.4 hPa | 1.52 mm | - | - | - |
| 1778054077 | 10.56° C | 97% | 1010.4 hPa | 1.78 mm | - | - | - |
| 1778053717 | 11.11° C | 98% | 1010.3 hPa | 2.29 mm | - | - | - |
| 1778053357 | 11.11° C | 98% | 1010.3 hPa | 2.79 mm | - | - | - |
| 1778052997 | 11.67° C | 97% | 1010.2 hPa | 2.79 mm | - | - | - |
| 1778052637 | 11.67° C | 98% | 1010.1 hPa | 2.79 mm | - | - | - |
| 1778052277 | 11.11° C | 98% | 1010.1 hPa | 3.3 mm | - | - | - |
| 1778051197 | 11.11° C | 98% | 1009.7 hPa | 2.54 mm | - | - | - |
| 1778050837 | 10.56° C | 98% | 1009.6 hPa | 2.03 mm | - | - | - |
| 1778049397 | 10.56° C | 97% | 1009.5 hPa | 2.29 mm | - | - | - |
* Rain latest 24 hours (hover to see other rain measurements)
** Current wind speed in m/s (hover to see current wind gust speed)